sensor_id;sensor_type;location;lat;lon;timestamp;P1;durP1;ratioP1;P2;durP2;ratioP2
60306;SDS011;46155;52.364;6.580;2022-07-22T03:01:54;14.20;;;13.10;;
60306;SDS011;46155;52.364;6.580;2022-07-22T03:04:19;15.90;;;14.40;;
60306;SDS011;46155;52.364;6.580;2022-07-22T03:06:44;15.03;;;13.97;;
60306;SDS011;46155;52.364;6.580;2022-07-22T03:09:10;12.83;;;12.07;;
60306;SDS011;46155;52.364;6.580;2022-07-22T03:11:35;16.27;;;14.80;;
60306;SDS011;46155;52.364;6.580;2022-07-22T03:14:00;14.40;;;13.17;;
60306;SDS011;46155;52.364;6.580;2022-07-22T03:16:26;14.50;;;13.70;;
60306;SDS011;46155;52.364;6.580;2022-07-22T03:18:51;14.83;;;14.03;;
60306;SDS011;46155;52.364;6.580;2022-07-22T03:21:16;13.20;;;12.20;;
60306;SDS011;46155;52.364;6.580;2022-07-22T03:23:41;13.67;;;12.80;;
60306;SDS011;46155;52.364;6.580;2022-07-22T03:26:07;13.73;;;12.83;;
60306;SDS011;46155;52.364;6.580;2022-07-22T03:28:32;14.80;;;13.30;;
60306;SDS011;46155;52.364;6.580;2022-07-22T03:30:57;13.80;;;12.63;;
60306;SDS011;46155;52.364;6.580;2022-07-22T03:33:23;13.93;;;13.03;;
60306;SDS011;46155;52.364;6.580;2022-07-22T03:35:48;14.17;;;13.27;;
60306;SDS011;46155;52.364;6.580;2022-07-22T03:38:13;14.97;;;13.73;;
60306;SDS011;46155;52.364;6.580;2022-07-22T03:40:38;14.50;;;13.47;;
60306;SDS011;46155;52.364;6.580;2022-07-22T03:43:04;14.70;;;13.83;;
60306;SDS011;46155;52.364;6.580;2022-07-22T03:45:30;15.17;;;14.13;;
60306;SDS011;46155;52.364;6.580;2022-07-22T03:47:55;15.57;;;14.63;;
60306;SDS011;46155;52.364;6.580;2022-07-22T03:50:22;14.40;;;13.50;;
60306;SDS011;46155;52.364;6.580;2022-07-22T03:52:48;13.33;;;12.00;;
60306;SDS011;46155;52.364;6.580;2022-07-22T03:55:13;11.37;;;10.47;;
60306;SDS011;46155;52.364;6.580;2022-07-22T03:57:38;11.53;;;10.73;;
60306;SDS011;46155;52.364;6.580;2022-07-22T04:00:04;11.00;;;10.07;;
60306;SDS011;46155;52.364;6.580;2022-07-22T04:02:31;9.27;;;8.47;;
60306;SDS011;46155;52.364;6.580;2022-07-22T04:04:56;9.50;;;8.70;;
60306;SDS011;46155;52.364;6.580;2022-07-22T04:07:21;9.70;;;7.50;;
60306;SDS011;46155;52.364;6.580;2022-07-22T04:09:47;8.43;;;7.83;;
60306;SDS011;46155;52.364;6.580;2022-07-22T04:12:12;8.10;;;7.20;;
60306;SDS011;46155;52.364;6.580;2022-07-22T04:14:37;9.70;;;7.93;;
60306;SDS011;46155;52.364;6.580;2022-07-22T04:17:02;15.07;;;7.87;;
60306;SDS011;46155;52.364;6.580;2022-07-22T04:19:28;9.13;;;8.40;;
60306;SDS011;46155;52.364;6.580;2022-07-22T04:21:53;9.10;;;7.53;;
60306;SDS011;46155;52.364;6.580;2022-07-22T04:24:18;8.00;;;7.40;;
60306;SDS011;46155;52.364;6.580;2022-07-22T04:26:44;8.50;;;7.43;;
60306;SDS011;46155;52.364;6.580;2022-07-22T04:29:09;7.47;;;7.07;;
60306;SDS011;46155;52.364;6.580;2022-07-22T04:31:34;10.50;;;7.27;;
60306;SDS011;46155;52.364;6.580;2022-07-22T04:33:59;10.20;;;7.57;;
60306;SDS011;46155;52.364;6.580;2022-07-22T04:36:25;8.87;;;8.27;;
60306;SDS011;46155;52.364;6.580;2022-07-22T04:38:50;9.20;;;8.03;;
60306;SDS011;46155;52.364;6.580;2022-07-22T04:41:16;11.13;;;8.13;;
60306;SDS011;46155;52.364;6.580;2022-07-22T04:43:41;8.37;;;7.80;;
60306;SDS011;46155;52.364;6.580;2022-07-22T04:46:06;8.93;;;8.33;;
60306;SDS011;46155;52.364;6.580;2022-07-22T04:48:32;9.30;;;8.70;;
60306;SDS011;46155;52.364;6.580;2022-07-22T04:51:00;9.43;;;8.67;;
60306;SDS011;46155;52.364;6.580;2022-07-22T04:53:26;8.87;;;8.37;;
60306;SDS011;46155;52.364;6.580;2022-07-22T04:55:52;11.27;;;8.90;;
60306;SDS011;46155;52.364;6.580;2022-07-22T04:58:18;9.40;;;8.47;;
60306;SDS011;46155;52.364;6.580;2022-07-22T05:00:44;8.87;;;8.27;;
60306;SDS011;46155;52.364;6.580;2022-07-22T05:03:10;9.03;;;8.53;;
60306;SDS011;46155;52.364;6.580;2022-07-22T05:05:35;12.73;;;8.73;;
60306;SDS011;46155;52.364;6.580;2022-07-22T05:08:01;9.00;;;8.50;;
60306;SDS011;46155;52.364;6.580;2022-07-22T05:10:26;10.43;;;9.67;;
60306;SDS011;46155;52.364;6.580;2022-07-22T05:12:52;10.30;;;9.60;;
60306;SDS011;46155;52.364;6.580;2022-07-22T05:15:17;10.67;;;9.60;;
60306;SDS011;46155;52.364;6.580;2022-07-22T05:17:43;10.97;;;9.83;;
60306;SDS011;46155;52.364;6.580;2022-07-22T05:20:08;9.97;;;9.30;;
60306;SDS011;46155;52.364;6.580;2022-07-22T05:22:34;9.70;;;9.10;;
60306;SDS011;46155;52.364;6.580;2022-07-22T05:24:59;8.97;;;8.20;;
60306;SDS011;46155;52.364;6.580;2022-07-22T05:27:25;9.37;;;8.57;;
60306;SDS011;46155;52.364;6.580;2022-07-22T05:29:50;9.43;;;8.73;;
60306;SDS011;46155;52.364;6.580;2022-07-22T05:32:15;9.33;;;8.63;;
60306;SDS011;46155;52.364;6.580;2022-07-22T05:34:40;9.67;;;8.87;;
60306;SDS011;46155;52.364;6.580;2022-07-22T05:37:06;8.47;;;7.80;;
60306;SDS011;46155;52.364;6.580;2022-07-22T05:39:31;8.97;;;8.00;;
60306;SDS011;46155;52.364;6.580;2022-07-22T05:41:57;15.17;;;7.27;;
60306;SDS011;46155;52.364;6.580;2022-07-22T05:44:22;8.20;;;7.77;;
60306;SDS011;46155;52.364;6.580;2022-07-22T05:46:47;8.60;;;8.03;;
60306;SDS011;46155;52.364;6.580;2022-07-22T05:49:13;7.50;;;7.10;;
60306;SDS011;46155;52.364;6.580;2022-07-22T05:51:38;9.27;;;7.70;;
60306;SDS011;46155;52.364;6.580;2022-07-22T05:54:03;7.53;;;7.10;;
60306;SDS011;46155;52.364;6.580;2022-07-22T05:56:29;8.23;;;7.57;;
60306;SDS011;46155;52.364;6.580;2022-07-22T05:58:54;8.80;;;7.80;;
60306;SDS011;46155;52.364;6.580;2022-07-22T06:01:21;9.87;;;8.07;;
60306;SDS011;46155;52.364;6.580;2022-07-22T06:03:46;8.23;;;7.73;;
60306;SDS011;46155;52.364;6.580;2022-07-22T06:06:11;8.53;;;7.83;;
60306;SDS011;46155;52.364;6.580;2022-07-22T06:08:37;8.97;;;6.87;;
60306;SDS011;46155;52.364;6.580;2022-07-22T06:11:02;9.37;;;7.90;;
60306;SDS011;46155;52.364;6.580;2022-07-22T06:13:27;7.43;;;6.90;;
60306;SDS011;46155;52.364;6.580;2022-07-22T06:15:53;8.07;;;7.10;;
60306;SDS011;46155;52.364;6.580;2022-07-22T06:18:18;11.83;;;8.73;;
60306;SDS011;46155;52.364;6.580;2022-07-22T06:20:44;18.93;;;8.30;;
60306;SDS011;46155;52.364;6.580;2022-07-22T06:23:09;9.07;;;7.80;;
60306;SDS011;46155;52.364;6.580;2022-07-22T06:25:35;7.83;;;7.10;;
60306;SDS011;46155;52.364;6.580;2022-07-22T06:28:01;8.37;;;7.60;;
60306;SDS011;46155;52.364;6.580;2022-07-22T06:30:26;10.30;;;7.60;;
60306;SDS011;46155;52.364;6.580;2022-07-22T06:32:51;8.63;;;7.60;;
60306;SDS011;46155;52.364;6.580;2022-07-22T06:35:17;9.97;;;8.00;;
60306;SDS011;46155;52.364;6.580;2022-07-22T06:37:43;7.13;;;6.43;;
60306;SDS011;46155;52.364;6.580;2022-07-22T06:40:09;8.63;;;6.50;;
60306;SDS011;46155;52.364;6.580;2022-07-22T06:42:34;9.83;;;7.63;;
60306;SDS011;46155;52.364;6.580;2022-07-22T06:45:00;9.80;;;6.90;;
60306;SDS011;46155;52.364;6.580;2022-07-22T06:47:25;11.47;;;7.93;;
60306;SDS011;46155;52.364;6.580;2022-07-22T06:49:50;7.67;;;7.07;;
60306;SDS011;46155;52.364;6.580;2022-07-22T06:52:16;7.50;;;6.90;;
60306;SDS011;46155;52.364;6.580;2022-07-22T06:54:41;9.07;;;7.23;;
60306;SDS011;46155;52.364;6.580;2022-07-22T06:57:06;11.83;;;7.70;;
60306;SDS011;46155;52.364;6.580;2022-07-22T06:59:31;14.23;;;7.90;;
60306;SDS011;46155;52.364;6.580;2022-07-22T07:01:57;15.13;;;7.70;;
60306;SDS011;46155;52.364;6.580;2022-07-22T07:04:22;7.60;;;6.97;;
60306;SDS011;46155;52.364;6.580;2022-07-22T07:06:47;7.30;;;6.70;;
60306;SDS011;46155;52.364;6.580;2022-07-22T07:09:13;8.50;;;6.73;;
60306;SDS011;46155;52.364;6.580;2022-07-22T07:11:38;6.83;;;6.43;;
60306;SDS011;46155;52.364;6.580;2022-07-22T07:14:03;10.00;;;6.87;;
60306;SDS011;46155;52.364;6.580;2022-07-22T07:16:29;7.40;;;6.90;;
60306;SDS011;46155;52.364;6.580;2022-07-22T07:18:54;7.70;;;7.00;;
60306;SDS011;46155;52.364;6.580;2022-07-22T07:21:20;6.37;;;5.87;;
60306;SDS011;46155;52.364;6.580;2022-07-22T07:23:45;6.67;;;6.20;;
60306;SDS011;46155;52.364;6.580;2022-07-22T07:26:11;6.03;;;5.70;;
60306;SDS011;46155;52.364;6.580;2022-07-22T07:28:36;12.90;;;6.47;;
60306;SDS011;46155;52.364;6.580;2022-07-22T07:31:01;13.57;;;6.63;;
60306;SDS011;46155;52.364;6.580;2022-07-22T07:33:27;6.47;;;5.93;;
60306;SDS011;46155;52.364;6.580;2022-07-22T07:35:52;6.80;;;6.20;;
60306;SDS011;46155;52.364;6.580;2022-07-22T07:38:17;5.30;;;4.90;;
60306;SDS011;46155;52.364;6.580;2022-07-22T07:40:42;6.20;;;5.70;;
60306;SDS011;46155;52.364;6.580;2022-07-22T07:43:08;6.60;;;5.77;;
60306;SDS011;46155;52.364;6.580;2022-07-22T07:45:34;4.77;;;4.57;;
60306;SDS011;46155;52.364;6.580;2022-07-22T07:48:00;6.37;;;5.73;;
60306;SDS011;46155;52.364;6.580;2022-07-22T07:50:26;6.37;;;5.90;;
60306;SDS011;46155;52.364;6.580;2022-07-22T07:52:51;18.30;;;7.40;;
60306;SDS011;46155;52.364;6.580;2022-07-22T07:55:17;5.47;;;5.17;;
60306;SDS011;46155;52.364;6.580;2022-07-22T07:57:43;6.83;;;6.07;;
60306;SDS011;46155;52.364;6.580;2022-07-22T08:00:11;5.57;;;5.27;;
60306;SDS011;46155;52.364;6.580;2022-07-22T08:02:37;11.70;;;6.10;;
60306;SDS011;46155;52.364;6.580;2022-07-22T08:05:03;7.27;;;5.70;;
60306;SDS011;46155;52.364;6.580;2022-07-22T08:07:29;6.87;;;6.17;;
60306;SDS011;46155;52.364;6.580;2022-07-22T08:09:54;5.87;;;5.57;;
60306;SDS011;46155;52.364;6.580;2022-07-22T08:12:20;6.30;;;5.70;;
60306;SDS011;46155;52.364;6.580;2022-07-22T08:14:45;7.47;;;5.80;;
60306;SDS011;46155;52.364;6.580;2022-07-22T08:17:10;5.73;;;5.33;;
60306;SDS011;46155;52.364;6.580;2022-07-22T08:19:36;5.67;;;5.27;;
60306;SDS011;46155;52.364;6.580;2022-07-22T08:22:02;5.63;;;5.27;;
60306;SDS011;46155;52.364;6.580;2022-07-22T08:24:28;6.30;;;5.77;;
60306;SDS011;46155;52.364;6.580;2022-07-22T08:26:53;5.33;;;5.00;;
60306;SDS011;46155;52.364;6.580;2022-07-22T08:29:18;5.67;;;5.27;;
60306;SDS011;46155;52.364;6.580;2022-07-22T08:31:44;5.77;;;5.33;;
60306;SDS011;46155;52.364;6.580;2022-07-22T08:34:09;5.40;;;5.00;;
60306;SDS011;46155;52.364;6.580;2022-07-22T08:36:35;6.93;;;4.93;;
60306;SDS011;46155;52.364;6.580;2022-07-22T08:39:00;7.90;;;6.13;;
60306;SDS011;46155;52.364;6.580;2022-07-22T08:41:25;5.90;;;5.30;;
60306;SDS011;46155;52.364;6.580;2022-07-22T08:43:51;6.63;;;5.37;;
60306;SDS011;46155;52.364;6.580;2022-07-22T08:46:17;5.73;;;5.40;;
60306;SDS011;46155;52.364;6.580;2022-07-22T08:48:43;5.23;;;4.73;;
60306;SDS011;46155;52.364;6.580;2022-07-22T08:51:10;5.57;;;5.17;;
60306;SDS011;46155;52.364;6.580;2022-07-22T08:53:35;5.97;;;5.63;;
60306;SDS011;46155;52.364;6.580;2022-07-22T08:56:01;6.60;;;6.00;;
60306;SDS011;46155;52.364;6.580;2022-07-22T08:58:26;5.97;;;5.67;;
60306;SDS011;46155;52.364;6.580;2022-07-22T09:01:08;5.77;;;5.40;;
60306;SDS011;46155;52.364;6.580;2022-07-22T09:03:46;5.67;;;5.37;;
60306;SDS011;46155;52.364;6.580;2022-07-22T09:06:11;7.33;;;5.30;;
60306;SDS011;46155;52.364;6.580;2022-07-22T09:08:50;5.80;;;5.50;;
60306;SDS011;46155;52.364;6.580;2022-07-22T09:11:23;9.20;;;5.90;;
60306;SDS011;46155;52.364;6.580;2022-07-22T09:13:50;6.50;;;5.80;;
60306;SDS011;46155;52.364;6.580;2022-07-22T09:16:16;5.30;;;5.00;;
60306;SDS011;46155;52.364;6.580;2022-07-22T09:19:09;5.50;;;5.20;;
60306;SDS011;46155;52.364;6.580;2022-07-22T09:21:36;6.00;;;5.53;;
60306;SDS011;46155;52.364;6.580;2022-07-22T09:24:04;5.60;;;5.20;;
60306;SDS011;46155;52.364;6.580;2022-07-22T09:26:33;5.83;;;5.43;;
60306;SDS011;46155;52.364;6.580;2022-07-22T09:29:01;6.43;;;5.70;;
60306;SDS011;46155;52.364;6.580;2022-07-22T09:31:27;6.20;;;5.80;;
60306;SDS011;46155;52.364;6.580;2022-07-22T09:33:57;4.93;;;4.73;;
60306;SDS011;46155;52.364;6.580;2022-07-22T09:36:23;5.43;;;5.23;;
60306;SDS011;46155;52.364;6.580;2022-07-22T09:38:49;6.00;;;5.40;;
60306;SDS011;46155;52.364;6.580;2022-07-22T09:41:14;6.43;;;5.70;;
60306;SDS011;46155;52.364;6.580;2022-07-22T09:43:40;5.57;;;4.97;;
60306;SDS011;46155;52.364;6.580;2022-07-22T09:46:05;5.70;;;5.40;;
60306;SDS011;46155;52.364;6.580;2022-07-22T09:48:31;7.83;;;5.30;;
60306;SDS011;46155;52.364;6.580;2022-07-22T09:50:56;6.90;;;5.30;;
60306;SDS011;46155;52.364;6.580;2022-07-22T09:53:24;5.33;;;5.00;;
60306;SDS011;46155;52.364;6.580;2022-07-22T09:55:52;5.83;;;5.53;;
60306;SDS011;46155;52.364;6.580;2022-07-22T09:58:18;7.43;;;5.33;;
60306;SDS011;46155;52.364;6.580;2022-07-22T10:00:43;7.80;;;5.23;;
60306;SDS011;46155;52.364;6.580;2022-07-22T10:03:21;6.60;;;5.57;;
60306;SDS011;46155;52.364;6.580;2022-07-22T10:05:52;6.07;;;5.47;;
60306;SDS011;46155;52.364;6.580;2022-07-22T10:08:18;6.30;;;5.80;;
60306;SDS011;46155;52.364;6.580;2022-07-22T10:10:44;11.80;;;6.23;;
60306;SDS011;46155;52.364;6.580;2022-07-22T10:13:09;5.63;;;5.17;;
60306;SDS011;46155;52.364;6.580;2022-07-22T10:15:35;6.07;;;5.67;;
60306;SDS011;46155;52.364;6.580;2022-07-22T10:18:03;6.83;;;5.33;;
60306;SDS011;46155;52.364;6.580;2022-07-22T10:20:33;6.23;;;5.77;;
60306;SDS011;46155;52.364;6.580;2022-07-22T10:23:01;5.63;;;5.33;;
60306;SDS011;46155;52.364;6.580;2022-07-22T10:25:29;5.77;;;5.47;;
60306;SDS011;46155;52.364;6.580;2022-07-22T10:28:19;6.13;;;5.60;;
60306;SDS011;46155;52.364;6.580;2022-07-22T10:30:52;5.77;;;5.37;;
60306;SDS011;46155;52.364;6.580;2022-07-22T10:33:18;5.83;;;5.53;;
60306;SDS011;46155;52.364;6.580;2022-07-22T10:38:11;6.07;;;5.70;;
60306;SDS011;46155;52.364;6.580;2022-07-22T10:40:51;8.23;;;5.90;;
60306;SDS011;46155;52.364;6.580;2022-07-22T10:43:20;6.43;;;6.03;;
60306;SDS011;46155;52.364;6.580;2022-07-22T10:45:51;5.90;;;5.40;;
60306;SDS011;46155;52.364;6.580;2022-07-22T10:48:22;6.40;;;6.00;;
60306;SDS011;46155;52.364;6.580;2022-07-22T10:50:51;6.93;;;6.37;;
60306;SDS011;46155;52.364;6.580;2022-07-22T10:53:21;6.33;;;5.93;;
60306;SDS011;46155;52.364;6.580;2022-07-22T11:00:57;6.17;;;5.80;;
60306;SDS011;46155;52.364;6.580;2022-07-22T11:03:24;8.80;;;5.93;;
60306;SDS011;46155;52.364;6.580;2022-07-22T11:05:50;24.33;;;7.13;;
60306;SDS011;46155;52.364;6.580;2022-07-22T11:08:15;6.60;;;5.93;;
60306;SDS011;46155;52.364;6.580;2022-07-22T11:10:47;13.63;;;7.00;;
60306;SDS011;46155;52.364;6.580;2022-07-22T11:13:32;6.07;;;5.60;;
60306;SDS011;46155;52.364;6.580;2022-07-22T11:16:14;6.50;;;5.90;;
60306;SDS011;46155;52.364;6.580;2022-07-22T11:18:48;5.70;;;5.30;;
60306;SDS011;46155;52.364;6.580;2022-07-22T11:21:19;6.10;;;5.70;;
60306;SDS011;46155;52.364;6.580;2022-07-22T11:23:47;6.20;;;5.60;;
60306;SDS011;46155;52.364;6.580;2022-07-22T11:26:15;6.47;;;5.90;;
60306;SDS011;46155;52.364;6.580;2022-07-22T11:28:43;8.87;;;5.43;;
60306;SDS011;46155;52.364;6.580;2022-07-22T11:31:10;5.87;;;5.47;;
60306;SDS011;46155;52.364;6.580;2022-07-22T11:33:39;6.40;;;5.60;;
60306;SDS011;46155;52.364;6.580;2022-07-22T11:36:05;6.00;;;5.50;;
60306;SDS011;46155;52.364;6.580;2022-07-22T11:38:48;6.10;;;5.60;;
60306;SDS011;46155;52.364;6.580;2022-07-22T11:41:15;8.13;;;5.70;;
60306;SDS011;46155;52.364;6.580;2022-07-22T11:43:45;6.60;;;6.20;;
60306;SDS011;46155;52.364;6.580;2022-07-22T11:46:15;5.70;;;5.33;;
60306;SDS011;46155;52.364;6.580;2022-07-22T11:48:42;7.13;;;5.90;;
60306;SDS011;46155;52.364;6.580;2022-07-22T11:51:08;6.00;;;5.60;;
60306;SDS011;46155;52.364;6.580;2022-07-22T11:53:39;5.87;;;5.57;;
60306;SDS011;46155;52.364;6.580;2022-07-22T11:56:06;10.27;;;6.10;;
60306;SDS011;46155;52.364;6.580;2022-07-22T11:58:34;5.70;;;5.40;;
60306;SDS011;46155;52.364;6.580;2022-07-22T12:00:59;6.27;;;5.67;;
60306;SDS011;46155;52.364;6.580;2022-07-22T12:03:25;8.40;;;5.87;;
60306;SDS011;46155;52.364;6.580;2022-07-22T12:05:51;6.20;;;5.80;;
60306;SDS011;46155;52.364;6.580;2022-07-22T12:08:16;6.60;;;6.20;;
60306;SDS011;46155;52.364;6.580;2022-07-22T12:10:42;6.70;;;6.20;;
60306;SDS011;46155;52.364;6.580;2022-07-22T12:13:10;5.67;;;5.37;;
60306;SDS011;46155;52.364;6.580;2022-07-22T12:15:37;6.07;;;5.70;;
60306;SDS011;46155;52.364;6.580;2022-07-22T12:18:18;6.33;;;5.87;;
60306;SDS011;46155;52.364;6.580;2022-07-22T12:20:46;6.40;;;6.00;;
60306;SDS011;46155;52.364;6.580;2022-07-22T12:23:12;6.60;;;6.10;;
60306;SDS011;46155;52.364;6.580;2022-07-22T12:26:00;5.67;;;5.23;;
60306;SDS011;46155;52.364;6.580;2022-07-22T12:28:26;6.97;;;6.50;;
60306;SDS011;46155;52.364;6.580;2022-07-22T12:30:53;6.27;;;5.77;;
60306;SDS011;46155;52.364;6.580;2022-07-22T12:33:21;6.57;;;5.50;;
60306;SDS011;46155;52.364;6.580;2022-07-22T12:36:00;5.73;;;5.40;;
60306;SDS011;46155;52.364;6.580;2022-07-22T12:38:30;7.33;;;6.23;;
60306;SDS011;46155;52.364;6.580;2022-07-22T12:40:55;12.73;;;7.40;;
60306;SDS011;46155;52.364;6.580;2022-07-22T12:43:24;7.03;;;5.80;;
60306;SDS011;46155;52.364;6.580;2022-07-22T12:45:51;7.17;;;6.43;;
60306;SDS011;46155;52.364;6.580;2022-07-22T12:48:16;6.97;;;6.57;;
60306;SDS011;46155;52.364;6.580;2022-07-22T12:50:56;5.83;;;5.53;;
60306;SDS011;46155;52.364;6.580;2022-07-22T12:53:23;6.50;;;6.00;;
60306;SDS011;46155;52.364;6.580;2022-07-22T12:55:52;7.07;;;6.47;;
60306;SDS011;46155;52.364;6.580;2022-07-22T12:58:23;6.33;;;5.83;;
60306;SDS011;46155;52.364;6.580;2022-07-22T13:00:51;6.90;;;6.40;;
60306;SDS011;46155;52.364;6.580;2022-07-22T13:03:18;6.77;;;6.30;;
60306;SDS011;46155;52.364;6.580;2022-07-22T13:05:46;6.30;;;5.90;;
60306;SDS011;46155;52.364;6.580;2022-07-22T13:08:12;6.50;;;5.90;;
60306;SDS011;46155;52.364;6.580;2022-07-22T13:10:38;6.90;;;6.30;;
60306;SDS011;46155;52.364;6.580;2022-07-22T13:13:03;6.53;;;5.70;;
60306;SDS011;46155;52.364;6.580;2022-07-22T13:15:28;6.20;;;5.80;;
60306;SDS011;46155;52.364;6.580;2022-07-22T13:17:54;6.33;;;5.77;;
60306;SDS011;46155;52.364;6.580;2022-07-22T13:20:19;6.50;;;6.00;;
60306;SDS011;46155;52.364;6.580;2022-07-22T13:22:46;6.43;;;5.80;;
60306;SDS011;46155;52.364;6.580;2022-07-22T13:25:12;7.10;;;5.17;;
60306;SDS011;46155;52.364;6.580;2022-07-22T13:27:38;5.67;;;5.37;;
60306;SDS011;46155;52.364;6.580;2022-07-22T13:30:03;7.43;;;5.50;;
60306;SDS011;46155;52.364;6.580;2022-07-22T13:32:29;6.90;;;5.93;;
60306;SDS011;46155;52.364;6.580;2022-07-22T13:34:55;6.53;;;6.03;;
60306;SDS011;46155;52.364;6.580;2022-07-22T13:37:23;7.67;;;5.43;;
60306;SDS011;46155;52.364;6.580;2022-07-22T13:39:49;6.30;;;5.90;;
60306;SDS011;46155;52.364;6.580;2022-07-22T13:42:15;5.80;;;5.47;;
60306;SDS011;46155;52.364;6.580;2022-07-22T13:44:47;6.30;;;5.80;;
60306;SDS011;46155;52.364;6.580;2022-07-22T13:47:13;5.93;;;5.53;;
60306;SDS011;46155;52.364;6.580;2022-07-22T13:49:39;7.07;;;5.60;;
60306;SDS011;46155;52.364;6.580;2022-07-22T13:52:04;5.60;;;5.10;;
60306;SDS011;46155;52.364;6.580;2022-07-22T13:54:30;5.93;;;5.43;;
60306;SDS011;46155;52.364;6.580;2022-07-22T13:56:57;5.73;;;5.43;;
60306;SDS011;46155;52.364;6.580;2022-07-22T13:59:23;6.33;;;5.77;;
60306;SDS011;46155;52.364;6.580;2022-07-22T14:01:50;6.03;;;5.53;;
60306;SDS011;46155;52.364;6.580;2022-07-22T14:04:15;5.90;;;5.60;;
60306;SDS011;46155;52.364;6.580;2022-07-22T14:06:41;5.90;;;5.60;;
60306;SDS011;46155;52.364;6.580;2022-07-22T14:09:06;6.33;;;5.87;;
60306;SDS011;46155;52.364;6.580;2022-07-22T14:11:31;6.40;;;5.90;;
60306;SDS011;46155;52.364;6.580;2022-07-22T14:13:57;7.23;;;6.57;;
60306;SDS011;46155;52.364;6.580;2022-07-22T14:16:22;6.70;;;6.13;;
60306;SDS011;46155;52.364;6.580;2022-07-22T14:19:03;5.80;;;5.50;;
60306;SDS011;46155;52.364;6.580;2022-07-22T14:21:34;5.50;;;5.10;;
60306;SDS011;46155;52.364;6.580;2022-07-22T14:24:00;6.90;;;6.20;;
60306;SDS011;46155;52.364;6.580;2022-07-22T14:26:26;7.07;;;6.57;;
60306;SDS011;46155;52.364;6.580;2022-07-22T14:28:52;6.40;;;5.90;;
60306;SDS011;46155;52.364;6.580;2022-07-22T14:31:18;6.07;;;5.50;;
60306;SDS011;46155;52.364;6.580;2022-07-22T14:33:44;5.97;;;5.43;;
60306;SDS011;46155;52.364;6.580;2022-07-22T14:36:10;6.60;;;6.00;;
60306;SDS011;46155;52.364;6.580;2022-07-22T14:38:35;6.87;;;6.17;;
60306;SDS011;46155;52.364;6.580;2022-07-22T14:41:00;6.50;;;5.90;;
60306;SDS011;46155;52.364;6.580;2022-07-22T14:43:26;5.90;;;5.60;;
60306;SDS011;46155;52.364;6.580;2022-07-22T14:45:51;6.40;;;6.00;;
60306;SDS011;46155;52.364;6.580;2022-07-22T14:48:17;6.30;;;5.50;;
60306;SDS011;46155;52.364;6.580;2022-07-22T14:50:42;6.10;;;5.70;;
60306;SDS011;46155;52.364;6.580;2022-07-22T14:53:07;6.70;;;6.30;;
60306;SDS011;46155;52.364;6.580;2022-07-22T14:55:33;6.30;;;5.90;;
60306;SDS011;46155;52.364;6.580;2022-07-22T14:57:58;6.00;;;5.70;;
60306;SDS011;46155;52.364;6.580;2022-07-22T15:00:23;8.80;;;5.43;;
60306;SDS011;46155;52.364;6.580;2022-07-22T15:02:49;5.70;;;5.37;;
60306;SDS011;46155;52.364;6.580;2022-07-22T15:05:14;6.90;;;6.17;;
60306;SDS011;46155;52.364;6.580;2022-07-22T15:07:39;6.87;;;5.60;;
60306;SDS011;46155;52.364;6.580;2022-07-22T15:10:05;6.70;;;6.10;;
60306;SDS011;46155;52.364;6.580;2022-07-22T15:12:31;6.40;;;6.00;;
60306;SDS011;46155;52.364;6.580;2022-07-22T15:14:57;6.40;;;5.33;;
60306;SDS011;46155;52.364;6.580;2022-07-22T15:17:22;8.60;;;5.67;;
60306;SDS011;46155;52.364;6.580;2022-07-22T15:19:47;5.60;;;5.20;;
60306;SDS011;46155;52.364;6.580;2022-07-22T15:22:12;6.63;;;5.93;;
60306;SDS011;46155;52.364;6.580;2022-07-22T15:24:38;7.77;;;5.30;;
60306;SDS011;46155;52.364;6.580;2022-07-22T15:27:03;5.90;;;5.60;;
60306;SDS011;46155;52.364;6.580;2022-07-22T15:29:28;5.93;;;5.47;;
60306;SDS011;46155;52.364;6.580;2022-07-22T15:31:54;6.13;;;5.63;;
60306;SDS011;46155;52.364;6.580;2022-07-22T15:34:19;5.70;;;5.30;;
60306;SDS011;46155;52.364;6.580;2022-07-22T15:36:44;5.73;;;5.23;;
60306;SDS011;46155;52.364;6.580;2022-07-22T15:39:10;5.73;;;5.33;;
60306;SDS011;46155;52.364;6.580;2022-07-22T15:41:36;6.70;;;6.20;;
60306;SDS011;46155;52.364;6.580;2022-07-22T15:44:02;6.50;;;5.90;;
60306;SDS011;46155;52.364;6.580;2022-07-22T15:46:28;6.23;;;5.70;;
60306;SDS011;46155;52.364;6.580;2022-07-22T15:48:53;6.40;;;5.80;;
60306;SDS011;46155;52.364;6.580;2022-07-22T15:51:19;6.83;;;6.30;;
60306;SDS011;46155;52.364;6.580;2022-07-22T15:53:44;6.53;;;5.67;;
60306;SDS011;46155;52.364;6.580;2022-07-22T15:56:09;6.67;;;6.00;;
60306;SDS011;46155;52.364;6.580;2022-07-22T15:58:35;6.57;;;5.97;;
60306;SDS011;46155;52.364;6.580;2022-07-22T16:01:18;5.87;;;5.57;;
60306;SDS011;46155;52.364;6.580;2022-07-22T16:03:44;6.30;;;5.90;;
60306;SDS011;46155;52.364;6.580;2022-07-22T16:06:10;5.70;;;5.40;;
60306;SDS011;46155;52.364;6.580;2022-07-22T16:08:36;6.00;;;5.57;;
60306;SDS011;46155;52.364;6.580;2022-07-22T16:11:01;5.90;;;5.50;;
60306;SDS011;46155;52.364;6.580;2022-07-22T16:13:27;5.90;;;5.43;;
60306;SDS011;46155;52.364;6.580;2022-07-22T16:15:52;6.20;;;5.80;;
60306;SDS011;46155;52.364;6.580;2022-07-22T16:18:17;10.97;;;6.27;;
60306;SDS011;46155;52.364;6.580;2022-07-22T16:20:44;5.60;;;5.30;;
60306;SDS011;46155;52.364;6.580;2022-07-22T16:23:09;6.23;;;5.73;;
60306;SDS011;46155;52.364;6.580;2022-07-22T16:25:34;6.60;;;6.00;;
60306;SDS011;46155;52.364;6.580;2022-07-22T16:28:00;6.07;;;5.67;;
60306;SDS011;46155;52.364;6.580;2022-07-22T16:30:25;6.40;;;5.90;;
60306;SDS011;46155;52.364;6.580;2022-07-22T16:32:50;6.60;;;6.10;;
60306;SDS011;46155;52.364;6.580;2022-07-22T16:35:16;6.60;;;6.03;;
60306;SDS011;46155;52.364;6.580;2022-07-22T16:37:41;6.03;;;5.53;;
60306;SDS011;46155;52.364;6.580;2022-07-22T16:40:07;7.53;;;6.70;;
60306;SDS011;46155;52.364;6.580;2022-07-22T16:42:33;6.13;;;5.73;;
60306;SDS011;46155;52.364;6.580;2022-07-22T16:44:58;5.93;;;5.60;;
60306;SDS011;46155;52.364;6.580;2022-07-22T16:47:24;8.63;;;6.00;;
60306;SDS011;46155;52.364;6.580;2022-07-22T16:49:49;6.47;;;5.83;;
60306;SDS011;46155;52.364;6.580;2022-07-22T16:52:14;5.80;;;5.33;;
60306;SDS011;46155;52.364;6.580;2022-07-22T16:54:39;5.53;;;5.13;;
60306;SDS011;46155;52.364;6.580;2022-07-22T16:57:05;5.90;;;5.50;;
60306;SDS011;46155;52.364;6.580;2022-07-22T16:59:30;5.90;;;5.50;;
60306;SDS011;46155;52.364;6.580;2022-07-22T17:01:55;5.77;;;5.43;;
60306;SDS011;46155;52.364;6.580;2022-07-22T17:04:21;7.23;;;6.60;;
60306;SDS011;46155;52.364;6.580;2022-07-22T17:06:46;6.57;;;6.10;;
60306;SDS011;46155;52.364;6.580;2022-07-22T17:09:12;6.30;;;5.80;;
60306;SDS011;46155;52.364;6.580;2022-07-22T17:11:37;5.93;;;5.43;;
60306;SDS011;46155;52.364;6.580;2022-07-22T17:14:03;5.27;;;4.97;;
60306;SDS011;46155;52.364;6.580;2022-07-22T17:16:29;6.67;;;6.07;;
60306;SDS011;46155;52.364;6.580;2022-07-22T17:18:54;5.43;;;5.13;;
60306;SDS011;46155;52.364;6.580;2022-07-22T17:21:19;5.97;;;5.47;;
60306;SDS011;46155;52.364;6.580;2022-07-22T17:23:45;9.47;;;5.57;;
60306;SDS011;46155;52.364;6.580;2022-07-22T17:26:10;6.77;;;6.20;;
60306;SDS011;46155;52.364;6.580;2022-07-22T17:28:35;6.13;;;5.67;;
60306;SDS011;46155;52.364;6.580;2022-07-22T17:31:01;6.40;;;5.80;;
60306;SDS011;46155;52.364;6.580;2022-07-22T17:33:30;6.23;;;5.63;;
60306;SDS011;46155;52.364;6.580;2022-07-22T17:35:55;6.83;;;5.90;;
60306;SDS011;46155;52.364;6.580;2022-07-22T17:38:20;7.17;;;5.87;;
60306;SDS011;46155;52.364;6.580;2022-07-22T17:40:46;6.03;;;5.73;;
60306;SDS011;46155;52.364;6.580;2022-07-22T17:43:11;6.80;;;6.30;;
60306;SDS011;46155;52.364;6.580;2022-07-22T17:45:36;6.07;;;5.47;;
60306;SDS011;46155;52.364;6.580;2022-07-22T17:48:01;5.87;;;5.37;;
60306;SDS011;46155;52.364;6.580;2022-07-22T17:50:27;6.93;;;6.23;;